Terminal Aerodrome Forecast
Issued by NWS

Home | Current Version | Previous Version | Text Only | Print | Product List | Glossary On
Versions: 1 2 3 4 5 6 7 8 9 10 11 12 13 14
000
FTAK31 PAJN 301123
TAFASI
TAF
PASI 301123Z 3012/0112 36012G20KT P6SM SKC WS020/06040KT
     FM302000 36018G25KT P6SM SKC WS020/06040KT
     FM010000 01012KT P6SM SKC WS020/06040KT
     FM010400 01006KT P6SM SKC=

USA.gov is the U.S. government's official web portal to all federal, state and local government web resources and services.